Time;durP1;ratioP1;P1;durP2;ratioP2;P2;SDS_P1;SDS_P2;PMS_P1;PMS_P2;Temp;Humidity;BMP_temperature;BMP_pressure;BME280_temperature;BME280_humidity;BME280_pressure;Samples;Min_cycle;Max_cycle;Signal;HPM_P1;HPM_P2
2023/06/08 00:00:54;;;;;;;3.55;2.17;;;;;;;15.95;66.92;102047.78;5094619;27;96676;-27
2023/06/08 00:03:20;;;;;;;6.38;1.83;;;;;;;15.87;67.19;102047.38;5075796;27;96962;-27
2023/06/08 00:05:47;;;;;;;3.35;2.00;;;;;;;15.81;67.20;102040.47;5075908;27;99400;-29
2023/06/08 00:08:12;;;;;;;7.72;2.05;;;;;;;15.80;67.78;102033.28;5075864;27;100872;-27
2023/06/08 00:10:44;;;;;;;4.07;1.88;;;;;;;15.79;67.30;102031.50;5094513;27;96736;-26
2023/06/08 00:13:09;;;;;;;4.47;1.92;;;;;;;15.80;67.60;102036.00;5095079;27;96718;-27
2023/06/08 00:15:35;;;;;;;4.70;2.25;;;;;;;15.73;67.61;102031.00;5094252;27;99385;-27
2023/06/08 00:18:01;;;;;;;6.43;2.03;;;;;;;15.75;67.32;102034.53;5094183;27;107068;-27
2023/06/08 00:20:26;;;;;;;6.82;1.98;;;;;;;15.65;68.07;102024.16;5094075;27;96665;-27
2023/06/08 00:22:51;;;;;;;5.70;2.20;;;;;;;15.60;67.07;102025.44;5094273;27;96763;-27
2023/06/08 00:25:17;;;;;;;7.38;2.47;;;;;;;15.51;68.59;102026.88;5094167;27;99318;-27
2023/06/08 00:27:43;;;;;;;4.47;2.05;;;;;;;15.54;68.99;102026.72;5094260;27;97302;-27
2023/06/08 00:30:09;;;;;;;6.80;2.25;;;;;;;15.56;69.02;102027.47;5094626;27;96672;-27
2023/06/08 00:32:34;;;;;;;3.50;2.13;;;;;;;15.55;68.57;102009.34;5075255;27;97127;-27
2023/06/08 00:34:59;;;;;;;4.75;2.20;;;;;;;15.58;68.92;102017.31;5093730;27;110313;-27
2023/06/08 00:37:25;;;;;;;6.50;2.25;;;;;;;15.58;68.51;102011.00;5094063;27;97759;-28
2023/06/08 00:39:50;;;;;;;3.40;1.73;;;;;;;15.52;68.49;102012.28;5094421;27;96765;-27
2023/06/08 00:42:15;;;;;;;5.90;2.17;;;;;;;15.54;68.30;102015.78;5093665;27;103340;-27
2023/06/08 00:44:41;;;;;;;5.78;2.17;;;;;;;15.51;68.77;102005.03;5092997;27;97457;-27
2023/06/08 00:47:07;;;;;;;5.32;2.00;;;;;;;15.44;68.64;102011.88;5093801;27;97196;-27
2023/06/08 00:49:33;;;;;;;3.72;1.98;;;;;;;15.38;69.64;102009.53;5075253;27;96799;-27
2023/06/08 00:52:00;;;;;;;6.75;2.25;;;;;;;15.32;69.83;101999.00;5094076;27;96768;-27
2023/06/08 00:54:30;;;;;;;4.93;1.80;;;;;;;15.34;69.63;101997.91;5075069;27;100963;-27
2023/06/08 00:57:00;;;;;;;2.97;1.85;;;;;;;15.29;69.74;101995.47;5075020;27;98865;-27
2023/06/08 00:59:28;;;;;;;3.60;2.05;;;;;;;15.22;69.82;101988.66;5093829;27;96507;-27
2023/06/08 01:01:56;;;;;;;4.75;2.30;;;;;;;15.22;69.22;101985.91;5075538;27;96985;-29
2023/06/08 01:04:23;;;;;;;5.43;2.13;;;;;;;15.22;69.38;102001.44;5093446;27;99520;-27
2023/06/08 01:06:53;;;;;;;9.07;2.53;;;;;;;15.18;70.14;102003.50;5074843;27;101227;-27
2023/06/08 01:09:25;;;;;;;4.78;2.10;;;;;;;15.16;69.46;101994.50;5074502;27;96975;-27
2023/06/08 01:12:17;;;;;;;6.95;2.40;;;;;;;15.18;69.95;102000.75;5093569;27;96868;-27
2023/06/08 01:14:54;;;;;;;3.92;2.42;;;;;;;15.17;69.55;102000.84;5074720;27;101170;-27
2023/06/08 01:17:24;;;;;;;2.63;1.70;;;;;;;15.17;69.88;101998.97;5093398;27;99391;-26
2023/06/08 01:20:03;;;;;;;5.20;2.40;;;;;;;15.14;70.08;101996.47;5074893;27;97100;-27
2023/06/08 01:22:51;;;;;;;4.80;2.15;;;;;;;15.05;71.07;101986.97;5074588;27;96777;-27
2023/06/08 01:25:18;;;;;;;5.30;2.15;;;;;;;15.10;69.92;101994.00;5074783;27;100905;-27
2023/06/08 01:27:44;;;;;;;7.53;2.15;;;;;;;15.12;69.79;101989.34;5074921;27;98763;-27
2023/06/08 01:30:10;;;;;;;4.10;2.28;;;;;;;15.12;70.39;101981.16;5093536;27;96704;-26
2023/06/08 01:32:35;;;;;;;7.53;2.45;;;;;;;14.99;70.40;101979.19;5074793;27;96804;-27
2023/06/08 01:35:02;;;;;;;6.65;2.50;;;;;;;15.02;70.79;101973.53;5092300;27;99191;-27
2023/06/08 01:37:42;;;;;;;3.67;2.03;;;;;;;15.03;70.22;101979.88;5074253;27;100763;-28
2023/06/08 01:40:24;;;;;;;9.15;2.30;;;;;;;15.04;70.10;101984.34;5074684;27;97714;-27
2023/06/08 01:42:52;;;;;;;6.38;2.20;;;;;;;15.03;70.47;101980.72;5093660;27;96503;-27
2023/06/08 01:45:25;;;;;;;5.00;2.08;;;;;;;14.89;71.49;101977.97;5074192;27;100756;-27
2023/06/08 01:47:58;;;;;;;3.95;2.17;;;;;;;14.90;71.40;101982.50;5092915;27;97338;-27
2023/06/08 01:50:25;;;;;;;3.50;2.05;;;;;;;14.84;71.31;101974.66;5074634;27;96794;-27
2023/06/08 01:52:51;;;;;;;5.22;2.03;;;;;;;14.73;71.42;101977.16;5074898;27;96783;-27
2023/06/08 01:55:21;;;;;;;5.45;2.22;;;;;;;14.78;70.55;101978.66;5075115;27;101173;-27
2023/06/08 01:57:47;;;;;;;4.15;1.77;;;;;;;14.74;71.86;101963.44;5077781;27;100997;-27
2023/06/08 02:00:15;;;;;;;4.00;2.17;;;;;;;14.78;71.36;101970.47;5077650;27;96766;-27
2023/06/08 02:02:40;;;;;;;6.22;2.10;;;;;;;14.75;72.25;101967.91;5078005;27;97734;-27
2023/06/08 02:05:09;;;;;;;3.67;2.38;;;;;;;14.70;71.21;101974.63;5096336;27;99029;-27
2023/06/08 02:07:36;;;;;;;3.45;1.90;;;;;;;14.76;71.10;101975.16;5077723;27;98973;-27
2023/06/08 02:10:03;;;;;;;3.85;1.98;;;;;;;14.74;71.22;101977.09;5096609;27;96562;-27
2023/06/08 02:12:28;;;;;;;5.85;1.98;;;;;;;14.71;70.70;101981.88;5077791;27;96967;-27
2023/06/08 02:14:53;;;;;;;5.57;2.20;;;;;;;14.71;71.41;101988.19;5095741;27;114345;-27
2023/06/08 02:17:26;;;;;;;5.75;1.98;;;;;;;14.75;71.10;101977.97;5096112;27;116181;-27
2023/06/08 02:19:53;;;;;;;5.45;2.30;;;;;;;14.69;70.96;101970.16;5096335;27;96607;-27
2023/06/08 02:22:19;;;;;;;4.63;2.10;;;;;;;14.70;70.03;101991.88;5095980;27;96946;-27
2023/06/08 02:24:44;;;;;;;4.07;2.05;;;;;;;14.58;69.82;101973.53;5095718;27;98231;-27
2023/06/08 02:27:11;;;;;;;3.75;2.05;;;;;;;14.63;70.33;101999.56;5095413;27;121948;-27
2023/06/08 02:29:36;;;;;;;4.60;2.20;;;;;;;14.62;70.41;101991.47;5077437;27;98108;-27
2023/06/08 02:32:02;;;;;;;5.07;2.47;;;;;;;14.54;70.97;101981.03;5095906;27;96816;-27
2023/06/08 02:34:28;;;;;;;5.50;2.05;;;;;;;14.51;70.38;101981.16;5077336;27;100988;-27
2023/06/08 02:36:53;;;;;;;3.47;1.73;;;;;;;14.48;71.14;101988.66;5077030;27;99275;-27
2023/06/08 02:39:18;;;;;;;3.28;1.92;;;;;;;14.43;70.93;101988.94;5096131;27;96511;-27
2023/06/08 02:41:44;;;;;;;3.60;1.77;;;;;;;14.41;70.96;101972.66;5095889;27;104746;-27
2023/06/08 02:44:09;;;;;;;6.25;1.92;;;;;;;14.46;70.74;101977.84;5096011;27;97913;-27
2023/06/08 02:46:36;;;;;;;5.80;2.63;;;;;;;14.45;71.19;101978.81;5095766;27;98734;-27
2023/06/08 02:49:01;;;;;;;9.95;2.15;;;;;;;14.41;71.17;101971.78;5095588;27;96758;-27
2023/06/08 02:51:27;;;;;;;5.50;2.17;;;;;;;14.49;71.85;101987.69;5096068;27;96788;-27
2023/06/08 02:53:52;;;;;;;4.57;2.00;;;;;;;14.37;71.39;101968.38;5095625;27;99388;-27
2023/06/08 02:56:17;;;;;;;3.60;1.88;;;;;;;14.42;71.19;101982.59;5095250;27;102984;-27
2023/06/08 02:58:46;;;;;;;4.10;1.75;;;;;;;14.41;71.21;101980.84;5095812;27;96540;-27
2023/06/08 03:01:14;;;;;;;7.68;2.38;;;;;;;14.36;71.28;101974.78;5095823;27;96800;-27
2023/06/08 03:03:42;;;;;;;3.58;2.00;;;;;;;14.34;71.48;101984.91;5076958;27;100815;-27
2023/06/08 03:06:09;;;;;;;3.25;2.15;;;;;;;14.28;70.77;101970.75;5076766;27;99289;-27
2023/06/08 03:08:36;;;;;;;6.82;2.05;;;;;;;14.28;71.19;101973.47;5076946;27;96794;-27
2023/06/08 03:11:02;;;;;;;4.88;2.17;;;;;;;14.25;71.32;101969.06;5076944;27;96782;-29
2023/06/08 03:13:27;;;;;;;3.78;2.05;;;;;;;14.25;71.50;101971.81;5094906;27;97896;-27
2023/06/08 03:15:53;;;;;;;6.78;2.38;;;;;;;14.17;70.66;101955.03;5094395;27;115724;-27
2023/06/08 03:18:18;;;;;;;4.80;2.40;;;;;;;14.14;71.68;101977.03;5095439;27;96493;-27
2023/06/08 03:20:44;;;;;;;3.88;1.88;;;;;;;14.12;71.05;101978.97;5095307;27;100574;-27
2023/06/08 03:23:09;;;;;;;4.72;2.05;;;;;;;14.08;71.29;101980.09;5095159;27;97905;-27
2023/06/08 03:25:36;;;;;;;3.60;2.17;;;;;;;14.02;70.97;101974.03;5095503;27;97721;-27
2023/06/08 03:28:02;;;;;;;5.55;2.42;;;;;;;14.00;71.43;101970.53;5076626;27;96737;-28
2023/06/08 03:30:28;;;;;;;8.88;2.55;;;;;;;14.01;71.40;101977.75;5076999;27;96807;-27
2023/06/08 03:32:54;;;;;;;4.63;1.92;;;;;;;13.92;71.13;101970.09;5076205;27;100855;-27
2023/06/08 03:35:19;;;;;;;3.92;2.50;;;;;;;13.93;71.84;101968.25;5076289;27;100880;-27
2023/06/08 03:37:45;;;;;;;4.43;2.15;;;;;;;13.94;71.56;101987.25;5094143;27;96478;-27
2023/06/08 03:40:10;;;;;;;3.95;2.00;;;;;;;13.93;71.23;101980.03;5094998;27;100252;-27
2023/06/08 03:42:36;;;;;;;5.07;2.22;;;;;;;13.90;71.44;101974.75;5095067;27;97471;-27
2023/06/08 03:45:01;;;;;;;2.85;1.92;;;;;;;13.93;71.72;101979.16;5094566;27;108557;-27
2023/06/08 03:47:27;;;;;;;4.68;2.03;;;;;;;13.94;71.20;101978.16;5094942;27;96632;-26
2023/06/08 03:49:52;;;;;;;3.15;1.85;;;;;;;13.83;71.83;101970.63;5076263;27;96727;-27
2023/06/08 03:52:18;;;;;;;3.35;2.00;;;;;;;13.93;71.76;101984.59;5094945;27;97476;-29
2023/06/08 03:54:45;;;;;;;4.10;2.22;;;;;;;13.91;71.36;101979.22;5059144;27;99732;-27
2023/06/08 03:57:10;;;;;;;5.40;2.15;;;;;;;13.89;71.58;101963.94;5076177;27;96773;-27
2023/06/08 03:59:36;;;;;;;3.50;1.98;;;;;;;13.89;71.39;101972.09;5094907;27;96735;-28
2023/06/08 04:02:01;;;;;;;5.25;2.13;;;;;;;13.87;71.70;101969.50;5075981;27;97515;-27
2023/06/08 04:04:29;;;;;;;2.60;1.83;;;;;;;13.86;72.07;101973.16;5094502;27;99356;-27
2023/06/08 04:07:00;;;;;;;4.13;2.28;;;;;;;13.88;72.22;101975.81;5094808;27;96533;-27
2023/06/08 04:09:29;;;;;;;5.70;2.47;;;;;;;13.91;71.45;101976.50;5076171;27;96666;-27
2023/06/08 04:11:56;;;;;;;6.63;2.72;;;;;;;13.92;71.63;101983.72;5075855;27;98865;-27
2023/06/08 04:14:21;;;;;;;3.40;2.05;;;;;;;13.88;71.34;101970.38;5075858;27;98956;-27
2023/06/08 04:16:47;;;;;;;3.30;2.03;;;;;;;13.91;72.14;101983.81;5094682;27;96451;-27
2023/06/08 04:19:12;;;;;;;4.93;2.22;;;;;;;13.90;71.49;101974.75;5093684;27;97732;-27
2023/06/08 04:21:38;;;;;;;5.70;1.83;;;;;;;13.87;71.49;101972.22;5094375;27;97469;-27
2023/06/08 04:24:03;;;;;;;3.85;2.30;;;;;;;13.92;72.16;101972.84;5094356;27;96639;-27
2023/06/08 04:26:29;;;;;;;4.78;1.98;;;;;;;13.92;72.23;101972.84;5094004;27;96495;-28
2023/06/08 04:28:54;;;;;;;6.20;2.58;;;;;;;13.95;71.75;101969.91;5094417;27;96785;-27
2023/06/08 04:31:20;;;;;;;6.75;2.30;;;;;;;13.89;71.54;101966.66;5094228;27;97962;-27
2023/06/08 04:33:45;;;;;;;3.95;2.38;;;;;;;13.86;71.96;101959.56;5094010;27;97299;-27
2023/06/08 04:36:11;;;;;;;3.95;2.42;;;;;;;13.82;71.90;101966.13;5093911;27;96631;-27
2023/06/08 04:38:36;;;;;;;3.70;2.15;;;;;;;13.82;72.54;101968.84;5093563;27;97641;-26
2023/06/08 04:41:02;;;;;;;2.90;1.75;;;;;;;13.81;72.42;101954.38;5093845;27;99645;-27
2023/06/08 04:43:31;;;;;;;5.35;2.22;;;;;;;13.83;72.46;101965.19;5094585;27;97748;-27
2023/06/08 04:45:59;;;;;;;6.57;2.60;;;;;;;13.78;72.24;101968.16;5075391;27;96590;-27
2023/06/08 04:48:28;;;;;;;4.03;2.28;;;;;;;13.75;72.13;101964.72;5075443;27;97009;-27
2023/06/08 04:50:59;;;;;;;7.00;2.30;;;;;;;13.77;72.78;101976.41;5074435;27;100815;-27
2023/06/08 04:53:25;;;;;;;4.20;2.65;;;;;;;13.67;72.33;101964.28;5075418;27;98972;-27
2023/06/08 04:55:57;;;;;;;6.47;2.50;;;;;;;13.73;72.38;101967.56;5075302;27;96603;-27
2023/06/08 04:58:26;;;;;;;6.20;2.38;;;;;;;13.76;72.32;101971.94;5075333;27;96712;-27
2023/06/08 05:00:52;;;;;;;6.53;2.03;;;;;;;13.75;73.28;101970.16;5074959;27;101539;-26
2023/06/08 05:03:17;;;;;;;3.80;1.95;;;;;;;13.75;73.25;101972.91;5074904;27;100745;-27
2023/06/08 05:05:43;;;;;;;7.05;2.78;;;;;;;13.77;71.84;101976.41;5093954;27;96531;-27
2023/06/08 05:08:08;;;;;;;5.25;2.97;;;;;;;13.74;72.77;101971.16;5094219;27;99589;-27
2023/06/08 05:10:33;;;;;;;8.30;2.53;;;;;;;13.78;72.20;101972.75;5093493;27;98098;-26
2023/06/08 05:12:59;;;;;;;4.90;2.38;;;;;;;13.74;72.19;101958.41;5093785;27;98194;-27
2023/06/08 05:15:25;;;;;;;4.95;2.40;;;;;;;13.73;72.08;101961.22;5073703;27;97154;-28
2023/06/08 05:17:52;;;;;;;4.68;2.63;;;;;;;13.76;72.52;101958.34;5093150;27;96730;-27
2023/06/08 05:20:17;;;;;;;3.53;2.15;;;;;;;13.75;72.31;101960.19;5074718;27;101135;-27
2023/06/08 05:22:43;;;;;;;6.72;2.70;;;;;;;13.84;72.90;101968.78;5093375;27;97851;-27
2023/06/08 05:25:08;;;;;;;3.70;2.40;;;;;;;13.89;72.52;101964.81;5093680;27;96649;-26
2023/06/08 05:27:33;;;;;;;6.63;2.67;;;;;;;13.96;71.47;101970.78;5093514;27;96809;-26
2023/06/08 05:29:59;;;;;;;4.07;2.60;;;;;;;13.87;71.63;101950.44;5093023;27;105652;-27
2023/06/08 05:32:24;;;;;;;4.70;2.60;;;;;;;13.93;72.45;101954.63;5091776;27;101126;-28
2023/06/08 05:34:50;;;;;;;7.25;2.83;;;;;;;13.96;71.64;101960.75;5090979;27;96739;-30
2023/06/08 05:37:15;;;;;;;4.25;2.22;;;;;;;13.97;71.82;101962.53;5090483;27;97407;-28
2023/06/08 05:39:41;;;;;;;3.33;2.10;;;;;;;14.01;72.03;101957.78;5090428;27;97938;-27
2023/06/08 05:42:06;;;;;;;3.80;2.17;;;;;;;14.02;71.77;101946.81;5090300;27;112651;-28
2023/06/08 05:44:32;;;;;;;5.60;2.70;;;;;;;14.07;71.55;101948.38;5090785;27;96946;-27
2023/06/08 05:46:58;;;;;;;5.95;2.40;;;;;;;14.12;71.25;101943.53;5072534;27;96822;-27
2023/06/08 05:49:24;;;;;;;6.68;2.47;;;;;;;14.22;70.81;101942.88;5093205;27;97921;-27
2023/06/08 05:51:50;;;;;;;4.38;2.13;;;;;;;14.31;71.57;101941.47;5074359;27;101037;-27
2023/06/08 05:54:15;;;;;;;5.05;2.80;;;;;;;14.36;70.92;101944.78;5093378;27;96458;-27
2023/06/08 05:56:40;;;;;;;4.43;2.17;;;;;;;14.50;70.74;101941.25;5092443;27;96790;-28
2023/06/08 05:59:06;;;;;;;4.75;2.85;;;;;;;14.52;70.88;101943.88;5093050;27;96750;-27
2023/06/08 06:01:31;;;;;;;5.47;2.45;;;;;;;14.62;70.55;101934.19;5092914;27;97736;-27
2023/06/08 06:03:57;;;;;;;4.45;3.08;;;;;;;14.67;70.22;101932.06;5092552;27;96623;-27
2023/06/08 06:06:22;;;;;;;7.72;2.50;;;;;;;14.80;70.17;101927.63;5093108;27;96785;-27
2023/06/08 06:08:47;;;;;;;4.15;2.63;;;;;;;14.75;69.94;101935.19;5092962;27;97917;-27
2023/06/08 06:11:13;;;;;;;4.78;2.78;;;;;;;14.88;69.88;101939.91;5092987;27;97991;-27
2023/06/08 06:13:38;;;;;;;4.43;2.33;;;;;;;14.96;69.96;101924.78;5092786;27;96537;-27
2023/06/08 06:16:03;;;;;;;5.72;2.80;;;;;;;15.03;69.44;101933.47;5092849;27;96791;-27
2023/06/08 06:18:29;;;;;;;4.35;2.67;;;;;;;15.17;69.55;101932.59;5074101;27;99524;-27
2023/06/08 06:20:54;;;;;;;4.55;2.40;;;;;;;15.33;68.19;101940.72;5093053;27;102111;-27
2023/06/08 06:23:20;;;;;;;4.28;2.10;;;;;;;15.39;68.48;101937.56;5092739;27;96615;-27
2023/06/08 06:25:45;;;;;;;3.92;2.15;;;;;;;15.48;68.12;101940.56;5092619;27;96877;-28
2023/06/08 06:28:10;;;;;;;4.53;2.70;;;;;;;15.48;67.91;101940.56;5092278;27;97952;-27
2023/06/08 06:30:36;;;;;;;5.53;2.92;;;;;;;15.56;67.81;101931.88;5092675;27;97988;-27
2023/06/08 06:33:01;;;;;;;5.82;2.67;;;;;;;15.58;67.71;101935.38;5092380;27;96853;-27
2023/06/08 06:35:27;;;;;;;5.72;2.33;;;;;;;15.68;67.66;101930.19;5092606;27;96744;-27
2023/06/08 06:37:54;;;;;;;6.28;2.58;;;;;;;15.78;67.00;101939.59;5091907;27;97926;-27
2023/06/08 06:40:20;;;;;;;5.60;2.65;;;;;;;15.78;67.59;101931.41;5073675;27;101146;-27
2023/06/08 06:42:45;;;;;;;3.65;2.30;;;;;;;15.90;67.16;101940.63;5076843;27;96608;-27
2023/06/08 06:45:11;;;;;;;4.65;2.33;;;;;;;15.97;67.17;101933.78;5096440;27;96814;-28
2023/06/08 06:47:40;;;;;;;6.45;2.95;;;;;;;16.10;67.05;101934.69;5095611;27;98016;-27
2023/06/08 06:50:06;;;;;;;5.07;2.50;;;;;;;16.25;66.73;101934.63;5077117;27;101363;-27
2023/06/08 06:52:35;;;;;;;6.43;2.83;;;;;;;16.40;66.30;101941.81;5076841;27;97063;-27
2023/06/08 06:55:04;;;;;;;4.43;2.70;;;;;;;16.50;65.87;101934.72;5060447;27;96939;-26
2023/06/08 06:57:31;;;;;;;4.28;2.70;;;;;;;16.61;65.57;101947.63;5077052;27;100680;-28
2023/06/08 06:59:57;;;;;;;4.60;2.65;;;;;;;16.64;65.51;101938.34;5076838;27;100706;-27
2023/06/08 07:02:23;;;;;;;4.70;2.90;;;;;;;16.71;65.29;101931.47;5077068;27;96627;-27
2023/06/08 07:04:52;;;;;;;5.05;2.53;;;;;;;16.81;64.85;101929.00;5095763;27;96741;-27
2023/06/08 07:07:18;;;;;;;7.47;2.80;;;;;;;16.96;65.21;101934.22;5076867;27;99846;-27
2023/06/08 07:09:43;;;;;;;7.00;2.65;;;;;;;17.06;64.38;101928.97;5095875;27;98353;-27
2023/06/08 07:12:09;;;;;;;5.50;2.33;;;;;;;17.21;63.86;101943.44;5095634;27;96646;-27
2023/06/08 07:14:34;;;;;;;5.82;2.88;;;;;;;17.32;63.85;101932.56;5095708;27;96793;-27
2023/06/08 07:16:59;;;;;;;4.43;2.58;;;;;;;17.38;63.74;101943.09;5094567;27;110380;-27
2023/06/08 07:19:25;;;;;;;5.68;2.67;;;;;;;17.49;63.30;101930.47;5095753;27;97202;-27
2023/06/08 07:21:52;;;;;;;5.72;2.17;;;;;;;17.61;63.00;101933.19;5095230;27;96724;-28
2023/06/08 07:24:18;;;;;;;3.55;2.45;;;;;;;17.66;62.63;101935.56;5095601;27;96731;-27
2023/06/08 07:26:45;;;;;;;4.35;2.55;;;;;;;17.78;62.63;101940.16;5095377;27;97901;-27
2023/06/08 07:29:11;;;;;;;5.28;2.55;;;;;;;17.86;62.46;101939.63;5095142;27;97852;-27
2023/06/08 07:31:39;;;;;;;6.28;2.50;;;;;;;17.94;62.60;101941.78;5095700;27;96602;-27
2023/06/08 07:34:06;;;;;;;7.55;2.47;;;;;;;18.04;61.87;101942.81;5076860;27;96885;-26
2023/06/08 07:36:32;;;;;;;3.33;1.95;;;;;;;18.15;62.08;101937.41;5076424;27;98929;-27
2023/06/08 07:38:57;;;;;;;7.05;2.75;;;;;;;18.27;62.32;101940.22;5094816;27;97260;-28
2023/06/08 07:41:26;;;;;;;9.02;2.85;;;;;;;18.35;61.54;101927.66;5094477;27;96549;-27
2023/06/08 07:43:51;;;;;;;4.57;2.42;;;;;;;18.44;60.90;101924.19;5076218;27;97003;-28
2023/06/08 07:46:16;;;;;;;4.40;2.40;;;;;;;18.45;60.67;101928.69;5094676;27;99238;-28
2023/06/08 07:48:42;;;;;;;5.03;2.63;;;;;;;18.53;60.63;101925.34;5094443;27;107474;-27
2023/06/08 07:51:07;;;;;;;4.47;2.15;;;;;;;18.52;60.01;101917.22;5095073;27;96724;-27
2023/06/08 07:53:36;;;;;;;8.52;2.85;;;;;;;18.71;59.93;101923.03;5093367;27;96850;-27
2023/06/08 07:56:02;;;;;;;4.30;2.40;;;;;;;18.68;59.97;101921.38;5074582;27;100852;-27
2023/06/08 07:58:28;;;;;;;4.80;2.08;;;;;;;18.76;59.64;101915.34;5074368;27;101323;-28
2023/06/08 08:00:53;;;;;;;4.72;2.70;;;;;;;18.84;59.60;101912.84;5094907;27;96435;-27
2023/06/08 08:03:19;;;;;;;6.32;2.67;;;;;;;18.94;59.47;101910.25;5094902;27;96804;-27
2023/06/08 08:05:44;;;;;;;5.00;2.25;;;;;;;19.03;59.57;101912.25;5094128;27;97907;-27
2023/06/08 08:08:10;;;;;;;4.68;2.60;;;;;;;19.20;59.26;101910.88;5088704;27;99471;-27
2023/06/08 08:10:35;;;;;;;4.25;2.17;;;;;;;19.31;58.63;101918.25;5082766;27;96646;-26
2023/06/08 08:13:01;;;;;;;4.97;2.10;;;;;;;19.47;58.37;101920.59;5091058;27;96873;-27
2023/06/08 08:15:26;;;;;;;3.42;2.25;;;;;;;19.46;57.47;101913.38;5094564;27;97416;-26
2023/06/08 08:17:52;;;;;;;3.88;1.75;;;;;;;19.63;57.11;101925.72;5094150;27;99040;-28
2023/06/08 08:20:17;;;;;;;5.60;2.45;;;;;;;19.71;56.96;101921.38;5094376;27;96715;-26
2023/06/08 08:22:43;;;;;;;4.60;2.30;;;;;;;19.79;57.25;101926.25;5091502;27;97702;-27
2023/06/08 08:25:08;;;;;;;5.25;2.70;;;;;;;19.84;56.85;101923.09;5094610;27;97415;-26
2023/06/08 08:27:35;;;;;;;8.32;2.55;;;;;;;19.91;56.72;101930.69;5094367;27;98247;-27
2023/06/08 08:30:01;;;;;;;4.70;2.35;;;;;;;20.00;56.48;101933.66;5093134;27;111771;-27
2023/06/08 08:32:26;;;;;;;7.45;3.03;;;;;;;20.01;56.46;101911.53;5074431;27;96944;-27
2023/06/08 08:34:51;;;;;;;4.82;2.38;;;;;;;20.14;56.60;101920.50;5093730;27;111101;-27
2023/06/08 08:37:17;;;;;;;5.00;2.67;;;;;;;20.35;56.09;101911.41;5085711;27;115661;-27
2023/06/08 08:39:42;;;;;;;4.88;2.38;;;;;;;20.44;55.67;101910.63;5073666;27;96694;-27
2023/06/08 08:42:10;;;;;;;6.32;2.70;;;;;;;20.54;55.35;101910.69;5073498;27;97748;-27
2023/06/08 08:44:36;;;;;;;5.93;2.67;;;;;;;20.65;55.12;101907.91;5055057;27;101046;-27
2023/06/08 08:47:04;;;;;;;7.03;2.92;;;;;;;20.74;55.21;101911.75;5073569;27;99197;-26
2023/06/08 08:49:32;;;;;;;5.45;2.75;;;;;;;20.88;54.97;101910.50;5054935;27;96709;-27
2023/06/08 08:52:01;;;;;;;4.97;2.72;;;;;;;20.95;55.01;101914.47;5054979;27;96924;-27
2023/06/08 08:54:33;;;;;;;4.63;2.80;;;;;;;21.05;54.85;101920.06;5054192;27;101325;-27
2023/06/08 08:57:00;;;;;;;7.47;3.15;;;;;;;20.91;54.61;101913.00;5073415;27;97348;-26
2023/06/08 08:59:28;;;;;;;5.75;3.00;;;;;;;20.81;54.20;101912.06;5054970;27;96690;-27
2023/06/08 09:01:55;;;;;;;5.45;2.83;;;;;;;21.00;54.64;101926.84;5073295;27;96876;-27
2023/06/08 09:04:20;;;;;;;7.78;3.05;;;;;;;21.21;53.88;101918.53;5054032;27;99248;-27
2023/06/08 09:06:49;;;;;;;7.20;2.83;;;;;;;21.35;53.13;101921.94;5090270;27;112908;-27
2023/06/08 09:09:15;;;;;;;6.07;2.80;;;;;;;21.42;53.15;101915.75;5087404;27;96962;-27
2023/06/08 09:11:58;;;;;;;9.00;3.03;;;;;;;21.57;52.94;101921.78;5063866;27;98561;-27
2023/06/08 09:14:24;;;;;;;10.02;3.45;;;;;;;21.65;52.26;101915.56;5065643;27;101319;-27
2023/06/08 09:16:50;;;;;;;7.43;2.80;;;;;;;21.72;52.81;101913.97;5074629;27;101309;-27
2023/06/08 09:19:15;;;;;;;8.10;3.10;;;;;;;21.73;52.81;101909.31;5074402;27;97132;-27
2023/06/08 09:21:41;;;;;;;11.85;3.50;;;;;;;21.84;51.87;101901.78;5090777;27;98119;-26
2023/06/08 09:24:12;;;;;;;6.25;2.92;;;;;;;21.94;51.94;101918.38;5093461;27;97961;-27
2023/06/08 09:26:59;;;;;;;8.52;3.20;;;;;;;21.77;51.99;101908.91;5074822;27;101212;-27
2023/06/08 09:29:36;;;;;;;6.85;2.80;;;;;;;22.03;52.19;101905.63;5087374;27;96655;-27
2023/06/08 09:32:02;;;;;;;7.55;2.72;;;;;;;22.17;52.13;101891.38;5089769;27;96813;-28
2023/06/08 09:34:34;;;;;;;9.20;3.75;;;;;;;22.30;51.45;101893.88;5074598;27;102753;-27
2023/06/08 09:37:07;;;;;;;6.68;2.72;;;;;;;22.44;51.01;101904.47;5074652;27;101247;-28
2023/06/08 09:39:44;;;;;;;4.53;3.03;;;;;;;22.45;51.03;101894.31;5073384;27;96951;-28
2023/06/08 09:42:10;;;;;;;8.50;3.15;;;;;;;22.54;51.09;101898.09;5074601;27;96902;-27
2023/06/08 09:44:35;;;;;;;14.13;3.05;;;;;;;22.58;50.93;101894.88;5090454;27;99583;-27
2023/06/08 09:47:25;;;;;;;8.70;3.47;;;;;;;22.59;50.43;101902.13;5092854;27;98793;-27
2023/06/08 09:49:52;;;;;;;6.53;2.63;;;;;;;22.61;50.99;101899.22;5074593;27;96784;-27
2023/06/08 09:52:23;;;;;;;5.22;2.75;;;;;;;22.62;50.79;101896.34;5074804;27;96880;-27
2023/06/08 09:54:51;;;;;;;4.68;2.72;;;;;;;22.73;50.89;101888.91;5074258;27;101020;-29
2023/06/08 09:57:20;;;;;;;7.53;3.28;;;;;;;22.77;50.53;101898.63;5074365;27;101537;-28
2023/06/08 10:00:14;;;;;;;7.32;2.92;;;;;;;22.88;49.98;101888.28;5074545;27;96833;-28
2023/06/08 10:02:53;;;;;;;6.80;2.80;;;;;;;23.10;49.62;101892.59;5072821;27;96668;-27
2023/06/08 10:05:22;;;;;;;8.32;3.53;;;;;;;23.14;50.51;101884.88;5061426;27;101285;-26
2023/06/08 10:07:50;;;;;;;6.32;3.15;;;;;;;23.20;50.26;101889.81;5074100;27;101433;-27
2023/06/08 10:10:21;;;;;;;10.27;3.22;;;;;;;23.37;49.26;101890.03;5072550;27;97733;-27
2023/06/08 10:12:46;;;;;;;6.65;3.20;;;;;;;23.49;49.93;101881.34;5074383;27;96709;-27
2023/06/08 10:15:14;;;;;;;5.82;2.85;;;;;;;23.54;49.90;101876.22;5090904;27;99708;-27
2023/06/08 10:17:40;;;;;;;7.68;3.88;;;;;;;23.52;49.75;101871.88;5076777;27;100749;-27
2023/06/08 10:20:06;;;;;;;5.43;2.80;;;;;;;23.61;49.33;101878.38;5077813;27;96548;-27
2023/06/08 10:22:32;;;;;;;5.47;2.80;;;;;;;23.75;49.55;101888.97;5096023;27;96850;-27
2023/06/08 10:24:58;;;;;;;5.60;3.15;;;;;;;23.68;49.27;101874.84;5077562;27;100945;-27
2023/06/08 10:27:23;;;;;;;9.77;3.55;;;;;;;23.73;49.08;101880.81;5077809;27;100830;-27
2023/06/08 10:29:55;;;;;;;9.07;3.50;;;;;;;23.88;49.60;101866.44;5096349;27;96595;-29
2023/06/08 10:32:31;;;;;;;8.25;3.80;;;;;;;23.83;49.49;101877.09;5077368;27;96844;-27
2023/06/08 10:34:58;;;;;;;9.20;2.85;;;;;;;23.92;49.26;101867.88;5095700;27;97113;-27
2023/06/08 10:37:28;;;;;;;7.15;3.00;;;;;;;24.13;48.45;101865.66;5076919;27;100960;-27
2023/06/08 10:39:54;;;;;;;7.43;3.35;;;;;;;24.13;48.95;101865.66;5077611;27;96643;-27
2023/06/08 10:42:20;;;;;;;8.63;3.58;;;;;;;24.21;48.68;101872.31;5077869;27;96817;-27
2023/06/08 10:44:59;;;;;;;7.10;2.72;;;;;;;24.32;48.47;101863.75;5096066;27;98073;-26
2023/06/08 10:47:25;;;;;;;7.22;2.83;;;;;;;24.17;48.98;101860.69;5077094;27;98917;-27
2023/06/08 10:50:00;;;;;;;11.98;3.20;;;;;;;24.38;48.29;101847.38;5077214;27;96538;-27
2023/06/08 10:52:29;;;;;;;7.57;2.95;;;;;;;24.50;48.60;101856.34;5077733;27;97171;-27
2023/06/08 10:55:08;;;;;;;7.13;3.30;;;;;;;24.48;48.23;101865.81;5077042;27;101074;-26
2023/06/08 10:57:43;;;;;;;8.00;3.03;;;;;;;24.57;47.64;101853.75;5076914;27;98884;-27
2023/06/08 11:00:31;;;;;;;7.68;3.20;;;;;;;24.71;47.48;101857.84;5076680;27;97432;-28
2023/06/08 11:02:59;;;;;;;5.40;3.15;;;;;;;24.63;47.38;101849.50;5077106;27;96850;-27
2023/06/08 11:05:28;;;;;;;7.20;3.28;;;;;;;24.63;47.75;101844.81;5077019;27;101407;-27
2023/06/08 11:07:54;;;;;;;5.60;2.92;;;;;;;24.73;47.74;101836.41;5076652;27;100719;-28
2023/06/08 11:10:20;;;;;;;7.13;2.90;;;;;;;24.88;47.36;101836.66;5077027;27;96602;-27
2023/06/08 11:12:46;;;;;;;7.45;3.60;;;;;;;24.93;47.75;101828.72;5095821;27;96787;-27
2023/06/08 11:15:11;;;;;;;7.03;3.28;;;;;;;25.04;47.59;101833.09;5095517;27;98092;-27
2023/06/08 11:17:57;;;;;;;6.13;3.08;;;;;;;25.15;47.32;101822.59;5095297;27;106100;-27
2023/06/08 11:20:26;;;;;;;6.75;2.63;;;;;;;25.21;47.16;101826.63;5094852;27;97948;-27
2023/06/08 11:22:52;;;;;;;7.18;3.08;;;;;;;25.27;47.04;101825.97;5076615;27;96944;-28
2023/06/08 11:25:22;;;;;;;5.93;3.10;;;;;;;25.20;46.76;101824.91;5094507;27;98934;-27